Time;durP1;ratioP1;P1;durP2;ratioP2;P2;SDS_P1;SDS_P2;PMS_P1;PMS_P2;Temp;Humidity;BMP_temperature;BMP_pressure;BME280_temperature;BME280_humidity;BME280_pressure;Samples;Min_cycle;Max_cycle;Signal;HPM_P1;HPM_P2
2022/12/01 15:01:34;;;;;;;87.50;14.23;;;;;;;4.59;100.00;101703.00;6197752;23;20021;-96
2022/12/01 15:04:22;;;;;;;;;;;;;;;;;;;;;
2022/12/01 15:07:21;;;;;;;47.28;11.73;;;;;;;4.29;100.00;101705.06;6098602;23;20030;-95
2022/12/01 15:14:07;;;;;;;37.97;12.13;;;;;;;4.52;100.00;101733.78;6114967;23;20111;-94
2022/12/01 15:17:03;;;;;;;64.55;14.82;;;;;;;4.06;100.00;101694.22;6068948;23;20022;-96
2022/12/01 15:20:27;;;;;;;38.78;14.60;;;;;;;3.93;100.00;101697.78;6156432;23;20009;-96
2022/12/01 15:23:29;;;;;;;57.17;15.18;;;;;;;3.78;100.00;101697.06;6168804;23;20013;-94
2022/12/01 15:26:17;;;;;;;;;;;;;;;;;;;;;
2022/12/01 15:29:30;;;;;;;51.33;15.55;;;;;;;3.82;100.00;101706.38;6169776;23;20026;-96
2022/12/01 15:32:48;;;;;;;;;;;;;;;;;;;;;
2022/12/01 15:38:04;;;;;;;52.10;11.10;;;;;;;3.51;100.00;101723.69;6172500;23;20015;-96
2022/12/01 16:45:28;;;;;;;79.85;11.55;;;;;;;2.22;100.00;101743.81;6193301;23;20017;-95
2022/12/01 16:47:54;;;;;;;100.68;11.23;;;;;;;2.22;100.00;101751.44;6188072;23;20067;-93
2022/12/01 16:50:21;;;;;;;110.82;12.13;;;;;;;1.98;100.00;101735.38;6193052;23;20009;-95
2022/12/01 16:52:46;;;;;;;142.30;14.55;;;;;;;2.09;100.00;101756.56;6190788;23;20040;-94
2022/12/01 16:55:25;;;;;;;82.35;11.40;;;;;;;2.16;100.00;101766.75;6193839;23;20008;-94
2022/12/01 16:57:50;;;;;;;26.33;9.20;;;;;;;2.07;100.00;101755.75;6200473;23;20016;-94
2022/12/01 17:00:16;;;;;;;123.53;11.15;;;;;;;2.29;100.00;101764.19;6204734;23;20391;-94
2022/12/01 17:02:42;;;;;;;293.58;19.83;;;;;;;2.23;100.00;101781.19;6197305;23;20016;-94
2022/12/01 17:05:10;;;;;;;83.07;9.60;;;;;;;2.08;100.00;101757.41;6196851;23;20001;-95
2022/12/01 17:07:35;;;;;;;183.68;13.38;;;;;;;2.06;100.00;101768.47;6194629;23;20039;-96
2022/12/01 17:10:01;;;;;;;319.02;18.10;;;;;;;1.83;100.00;101746.41;6195389;23;20009;-94
2022/12/01 17:12:26;;;;;;;177.60;14.95;;;;;;;1.79;100.00;101748.97;6193258;23;20032;-95
2022/12/01 17:14:52;;;;;;;177.55;14.65;;;;;;;1.77;100.00;101746.41;6191951;23;19997;-94
2022/12/01 17:17:17;;;;;;;30.17;8.98;;;;;;;1.92;100.00;101764.22;6191726;23;20454;-95
2022/12/01 17:19:43;;;;;;;83.75;11.52;;;;;;;2.02;100.00;101746.38;6190823;23;20041;-94
2022/12/01 17:22:08;;;;;;;221.20;16.15;;;;;;;1.99;100.00;101742.13;6189911;23;20061;-94
2022/12/01 17:24:34;;;;;;;60.13;10.85;;;;;;;2.14;100.00;101777.78;6190496;23;20005;-93
2022/12/01 17:26:59;;;;;;;72.57;11.60;;;;;;;1.93;100.00;101748.09;6196147;23;20005;-94
2022/12/01 17:29:25;;;;;;;27.83;9.82;;;;;;;1.91;100.00;101754.03;6195800;23;20001;-93
2022/12/01 17:31:50;;;;;;;163.02;13.93;;;;;;;1.96;100.00;101764.22;6195397;23;20063;-94
2022/12/01 17:34:16;;;;;;;203.88;13.13;;;;;;;1.84;100.00;101754.88;6197463;23;20009;-94
2022/12/01 17:36:42;;;;;;;311.48;18.42;;;;;;;1.80;100.00;101753.19;6193813;23;20031;-95
2022/12/01 17:39:07;;;;;;;59.38;9.25;;;;;;;1.83;100.00;101763.34;6186837;23;20012;-95
2022/12/01 17:41:34;;;;;;;176.50;14.18;;;;;;;1.95;100.00;101790.53;6187440;23;20023;-94
2022/12/01 17:44:04;;;;;;;289.00;19.20;;;;;;;1.64;100.00;101767.63;6186371;23;20002;-94
2022/12/01 17:46:30;;;;;;;195.35;16.35;;;;;;;1.86;100.00;101792.22;6185943;23;20005;-94
2022/12/01 17:48:56;;;;;;;291.60;20.67;;;;;;;1.76;100.00;101780.34;6185952;23;20009;-94
2022/12/01 17:51:22;;;;;;;125.95;14.30;;;;;;;1.75;100.00;101765.91;6185033;23;20001;-94
2022/12/01 17:53:47;;;;;;;131.25;14.38;;;;;;;1.89;100.00;101783.75;6185138;23;20009;-96
2022/12/01 17:56:15;;;;;;;145.23;14.63;;;;;;;1.80;100.00;101756.56;6185554;23;20080;-95
2022/12/01 17:58:41;;;;;;;148.05;14.38;;;;;;;1.86;100.00;101760.84;6185229;23;20001;-94
2022/12/01 18:01:14;;;;;;;337.75;115.15;;;;;;;1.94;100.00;101759.13;6185952;23;20005;-93
2022/12/01 21:04:46;;;;;;;124.63;10.40;;;;;;;0.34;100.00;101762.91;6188519;23;20471;-94
2022/12/01 21:07:26;;;;;;;245.93;21.17;;;;;;;0.11;100.00;101740.78;6185941;23;20005;-95
2022/12/01 21:10:02;;;;;;;36.00;6.40;;;;;;;0.10;100.00;101722.97;6193320;23;20016;-95
2022/12/01 21:16:21;;;;;;;;;;;;;;;;;;;;;
2022/12/01 21:21:44;;;;;;;17.80;5.35;;;;;;;0.37;100.00;101746.00;6219345;23;20044;-96
2022/12/01 21:24:25;;;;;;;;;;;;;;;;;;;;;
2022/12/01 21:27:16;;;;;;;84.88;7.97;;;;;;;0.23;100.00;101734.06;6205216;23;20047;-95
2022/12/01 21:29:47;;;;;;;126.07;9.60;;;;;;;0.41;100.00;101774.81;6195901;23;20000;-94
2022/12/01 21:32:16;;;;;;;40.20;7.07;;;;;;;0.26;100.00;101737.47;6193988;23;20005;-93
2022/12/01 21:34:44;;;;;;;178.52;15.48;;;;;;;0.41;100.00;101770.59;6193985;23;20098;-94
2022/12/01 21:37:19;;;;;;;22.15;6.80;;;;;;;0.40;100.00;101768.88;6163934;23;20005;-94
2022/12/01 21:39:48;;;;;;;89.32;9.75;;;;;;;0.32;100.00;101757.84;6162263;23;20040;-93
2022/12/01 21:42:21;;;;;;;98.28;38.92;;;;;;;0.28;100.00;101740.88;6161321;23;20432;-95
2022/12/01 21:44:47;;;;;;;133.02;15.07;;;;;;;0.37;100.00;101746.00;6161745;23;19997;-95
2022/12/01 21:47:20;;;;;;;23.73;5.63;;;;;;;0.56;100.00;101763.88;6160679;23;20574;-95
2022/12/01 21:49:49;;;;;;;175.10;10.57;;;;;;;0.29;100.00;101734.09;6160078;23;20451;-95
2022/12/01 21:52:21;;;;;;;24.92;5.88;;;;;;;0.27;100.00;101721.41;6160193;23;20032;-94
2022/12/01 21:54:46;;;;;;;30.17;6.75;;;;;;;0.31;100.00;101734.97;6160925;23;20072;-94
2022/12/01 21:57:40;;;;;;;75.80;7.55;;;;;;;0.25;100.00;101738.31;6162378;23;20456;-95
2022/12/01 22:00:27;;;;;;;151.63;11.02;;;;;;;0.05;100.00;101755.09;6158705;23;20013;-95
2022/12/01 22:03:08;;;;;;;18.70;4.60;;;;;;;0.32;100.00;101751.91;6164426;23;20005;-96
2022/12/01 22:05:40;;;;;;;115.63;6.78;;;;;;;0.26;100.00;101741.72;6164383;23;20439;-94
2022/12/01 22:08:12;;;;;;;41.92;6.15;;;;;;;0.28;100.00;101740.03;6164632;23;20015;-94
2022/12/01 22:11:08;;;;;;;147.52;9.23;;;;;;;0.01;100.00;101739.00;6163795;23;20009;-94
2022/12/01 22:13:54;;;;;;;62.65;5.95;;;;;;;-0.05;100.00;101744.91;6165087;23;20015;-96
2022/12/01 22:16:30;;;;;;;7.63;3.95;;;;;;;0.01;100.00;101738.16;6090143;23;20444;-95
2022/12/01 22:19:07;;;;;;;77.40;6.43;;;;;;;-0.11;100.00;101739.78;6162965;23;20066;-95
2022/12/01 22:21:36;;;;;;;28.55;4.60;;;;;;;-0.17;100.00;101709.28;6163177;23;20379;-95
2022/12/01 22:24:17;;;;;;;31.30;4.80;;;;;;;-0.25;100.00;101715.97;6163162;23;20424;-94
2022/12/01 22:26:46;;;;;;;27.00;5.15;;;;;;;-0.32;100.00;101717.59;6163003;23;20009;-94
2022/12/01 22:29:28;;;;;;;38.88;4.70;;;;;;;-0.20;100.00;101733.78;6164619;23;20032;-95
2022/12/01 22:31:59;;;;;;;;;;;;;;;-0.39;100.00;101727.69;6191209;23;20033;-94
2022/12/01 22:34:25;;;;;;;11.82;4.38;;;;;;;-0.42;100.00;101723.44;6165092;23;19919;-95
2022/12/01 22:36:51;;;;;;;19.08;5.13;;;;;;;-0.36;100.00;101712.53;6164819;23;20009;-94
2022/12/01 22:39:32;;;;;;;94.75;7.72;;;;;;;-0.35;100.00;101716.75;6162936;23;20016;-93
2022/12/01 22:42:06;;;;;;;120.95;8.93;;;;;;;-0.43;100.00;101715.00;6163793;23;20430;-96
2022/12/01 22:44:32;;;;;;;13.68;4.55;;;;;;;-0.15;100.00;101732.97;6164246;23;20005;-96
2022/12/01 22:47:01;;;;;;;19.08;5.22;;;;;;;-0.18;100.00;101711.81;6165325;23;20008;-94
2022/12/01 22:49:28;;;;;;;9.70;4.05;;;;;;;-0.13;100.00;101731.28;6163822;23;20092;-96
2022/12/01 22:52:01;;;;;;;99.07;9.48;;;;;;;-0.18;100.00;101732.09;6163770;23;20005;-95
2022/12/01 22:54:32;;;;;;;30.13;5.28;;;;;;;-0.24;100.00;101725.31;6163092;23;20035;-94
2022/12/01 22:57:04;;;;;;;14.55;3.65;;;;;;;-0.34;100.00;101715.91;6162308;23;20005;-94
2022/12/01 22:59:39;;;;;;;75.25;7.30;;;;;;;-0.55;100.00;101716.56;6161557;23;20005;-94
2022/12/01 23:02:19;;;;;;;67.00;5.43;;;;;;;-0.38;100.00;101729.41;6163272;23;19998;-95
2022/12/01 23:04:45;;;;;;;16.85;4.18;;;;;;;-0.60;100.00;101697.94;6163260;23;20012;-95
2022/12/01 23:07:22;;;;;;;14.57;4.53;;;;;;;-0.57;100.00;101725.84;6163099;23;20344;-95
2022/12/01 23:09:48;;;;;;;60.80;6.07;;;;;;;-0.61;100.00;101694.56;6163243;23;20049;-95
2022/12/01 23:12:24;;;;;;;55.45;5.18;;;;;;;-0.54;100.00;101728.41;6164410;23;20063;-94
2022/12/01 23:14:54;;;;;;;81.57;6.35;;;;;;;-0.61;100.00;101708.91;6164377;23;20001;-96
2022/12/01 23:17:27;;;;;;;83.82;5.85;;;;;;;-0.57;100.00;101729.22;6164105;23;20021;-95
2022/12/01 23:20:13;;;;;;;61.35;6.38;;;;;;;-0.67;100.00;101707.16;6163254;23;20235;-96
2022/12/01 23:22:39;;;;;;;50.72;5.50;;;;;;;-0.70;100.00;101713.06;6136679;23;20617;-94
2022/12/01 23:25:16;;;;;;;111.55;9.07;;;;;;;-0.78;100.00;101707.09;6162604;23;20127;-94
2022/12/01 23:27:44;;;;;;;112.32;7.43;;;;;;;-0.94;100.00;101695.94;6163485;23;20005;-94
2022/12/01 23:30:10;;;;;;;74.32;9.63;;;;;;;-0.87;100.00;101710.38;6162985;23;20005;-94
2022/12/01 23:32:36;;;;;;;39.55;4.07;;;;;;;-0.75;100.00;101735.00;6162681;23;20028;-94
2022/12/01 23:35:03;;;;;;;132.23;7.10;;;;;;;-0.98;100.00;101717.00;6162531;23;20012;-94
2022/12/01 23:37:39;;;;;;;44.88;5.45;;;;;;;-1.05;100.00;101707.63;6163251;23;20011;-95
2022/12/01 23:40:21;;;;;;;53.92;5.07;;;;;;;-0.91;100.00;101726.34;6162349;23;20347;-94
2022/12/01 23:42:46;;;;;;;5.65;2.80;;;;;;;-0.91;100.00;101707.78;6163885;23;20240;-94
2022/12/01 23:45:22;;;;;;;90.70;12.00;;;;;;;-0.98;100.00;101711.06;6163663;23;20209;-95
2022/12/01 23:47:48;;;;;;;28.40;5.45;;;;;;;-0.96;100.00;101695.06;6164725;23;20001;-94
2022/12/01 23:50:23;;;;;;;8.43;4.20;;;;;;;-0.84;100.00;101703.63;6162835;23;20040;-94
2022/12/01 23:52:49;;;;;;;19.33;5.10;;;;;;;-0.70;100.00;101707.16;6162713;23;20397;-95
2022/12/01 23:55:26;;;;;;;20.42;5.00;;;;;;;-0.64;100.00;101691.97;6162513;23;20009;-95
2022/12/01 23:57:52;;;;;;;73.63;7.50;;;;;;;-0.70;100.00;101699.53;6161961;23;20013;-95
